Terminal Aerodrome Forecast
Issued by NWS Grand Forks, ND

Home | Current Version | Previous Version | Graphics & Text | Print | Product List | Glossary On
Versions: 1 2 3 4 5 6 7 8 9 10 11 12 13 14 15 16 17 18 19 20
000
FTUS43 KFGF 061720
TAFGFK
TAF
KGFK 061720Z 0618/0718 31025G35KT 2SM -SN BLSN OVC015
      TEMPO 0618/0621 1/2SM -SN BLSN OVC008
     FM062100 30030G39KT 1SM -SN BLSN OVC008
      TEMPO 0621/0701 1/4SM -SN BLSN OVC003
     FM070100 30028G36KT 2SM BLSN OVC008
      TEMPO 0701/0704 1SM -SN OVC003
     FM070400 30028G36KT 3SM -SN BLSN OVC010
     FM070700 30024KT 2SM -SN BLSN OVC010
     FM071200 30018G28KT P6SM OVC015
     FM071700 30019G30KT P6SM OVC030=

USA.gov is the U.S. government's official web portal to all federal, state and local government web resources and services.